sensor_id;sensor_type;location;lat;lon;timestamp;temperature;humidity
70762;DHT22;58360;0.000;0.000;2023-05-28T00:02:12;17.50;79.00
70762;DHT22;58360;0.000;0.000;2023-05-28T00:04:41;17.20;80.60
70762;DHT22;58360;0.000;0.000;2023-05-28T00:07:06;17.10;81.40
70762;DHT22;58360;0.000;0.000;2023-05-28T00:09:36;17.10;81.30
70762;DHT22;58360;0.000;0.000;2023-05-28T00:12:02;17.20;81.40
70762;DHT22;58360;0.000;0.000;2023-05-28T00:14:28;17.20;82.10
70762;DHT22;58360;0.000;0.000;2023-05-28T00:16:54;17.10;82.90
70762;DHT22;58360;0.000;0.000;2023-05-28T00:19:19;17.20;82.80
70762;DHT22;58360;0.000;0.000;2023-05-28T00:21:47;17.10;82.90
70762;DHT22;58360;0.000;0.000;2023-05-28T00:24:13;17.10;82.10
70762;DHT22;58360;0.000;0.000;2023-05-28T00:26:38;16.90;83.40
70762;DHT22;58360;0.000;0.000;2023-05-28T00:29:04;17.00;82.60
70762;DHT22;58360;0.000;0.000;2023-05-28T00:31:30;17.10;81.40
70762;DHT22;58360;0.000;0.000;2023-05-28T00:33:55;17.30;80.80
70762;DHT22;58360;0.000;0.000;2023-05-28T00:36:22;17.40;80.40
70762;DHT22;58360;0.000;0.000;2023-05-28T00:38:48;17.30;80.20
70762;DHT22;58360;0.000;0.000;2023-05-28T00:41:19;17.30;80.30
70762;DHT22;58360;0.000;0.000;2023-05-28T00:43:45;17.30;80.40
70762;DHT22;58360;0.000;0.000;2023-05-28T00:46:10;17.10;81.00
70762;DHT22;58360;0.000;0.000;2023-05-28T00:48:36;17.10;81.30
70762;DHT22;58360;0.000;0.000;2023-05-28T00:51:02;17.10;81.30
70762;DHT22;58360;0.000;0.000;2023-05-28T00:53:28;17.10;81.30
70762;DHT22;58360;0.000;0.000;2023-05-28T00:55:54;17.20;80.80
70762;DHT22;58360;0.000;0.000;2023-05-28T00:58:21;17.20;80.70
70762;DHT22;58360;0.000;0.000;2023-05-28T01:00:47;17.10;81.30
70762;DHT22;58360;0.000;0.000;2023-05-28T01:03:13;17.00;81.50
70762;DHT22;58360;0.000;0.000;2023-05-28T01:05:39;17.10;81.00
70762;DHT22;58360;0.000;0.000;2023-05-28T01:08:06;17.10;80.90
70762;DHT22;58360;0.000;0.000;2023-05-28T01:10:33;17.20;80.60
70762;DHT22;58360;0.000;0.000;2023-05-28T01:13:01;17.20;80.50
70762;DHT22;58360;0.000;0.000;2023-05-28T01:15:27;17.10;81.00
70762;DHT22;58360;0.000;0.000;2023-05-28T01:18:00;17.10;80.60
70762;DHT22;58360;0.000;0.000;2023-05-28T01:20:27;16.90;81.20
70762;DHT22;58360;0.000;0.000;2023-05-28T01:22:55;16.80;81.80
70762;DHT22;58360;0.000;0.000;2023-05-28T01:25:22;16.90;81.40
70762;DHT22;58360;0.000;0.000;2023-05-28T01:27:48;17.00;81.30
70762;DHT22;58360;0.000;0.000;2023-05-28T01:30:14;16.90;81.30
70762;DHT22;58360;0.000;0.000;2023-05-28T01:32:40;16.70;81.90
70762;DHT22;58360;0.000;0.000;2023-05-28T01:35:07;16.80;81.90
70762;DHT22;58360;0.000;0.000;2023-05-28T01:37:36;16.90;81.40
70762;DHT22;58360;0.000;0.000;2023-05-28T01:40:03;16.80;81.90
70762;DHT22;58360;0.000;0.000;2023-05-28T01:42:33;16.60;82.40
70762;DHT22;58360;0.000;0.000;2023-05-28T01:45:00;16.50;82.90
70762;DHT22;58360;0.000;0.000;2023-05-28T01:47:28;16.50;82.70
70762;DHT22;58360;0.000;0.000;2023-05-28T01:49:54;16.40;83.50
70762;DHT22;58360;0.000;0.000;2023-05-28T01:52:20;16.40;84.00
70762;DHT22;58360;0.000;0.000;2023-05-28T01:54:47;16.50;83.50
70762;DHT22;58360;0.000;0.000;2023-05-28T01:57:13;16.50;83.30
70762;DHT22;58360;0.000;0.000;2023-05-28T01:59:40;16.40;83.70
70762;DHT22;58360;0.000;0.000;2023-05-28T02:02:07;16.50;83.50
70762;DHT22;58360;0.000;0.000;2023-05-28T02:04:33;16.30;84.10
70762;DHT22;58360;0.000;0.000;2023-05-28T02:06:59;16.30;84.40
70762;DHT22;58360;0.000;0.000;2023-05-28T02:09:24;16.40;83.90
70762;DHT22;58360;0.000;0.000;2023-05-28T02:11:50;16.40;84.20
70762;DHT22;58360;0.000;0.000;2023-05-28T02:14:16;16.50;83.40
70762;DHT22;58360;0.000;0.000;2023-05-28T02:16:46;16.50;83.40
70762;DHT22;58360;0.000;0.000;2023-05-28T02:19:15;16.40;83.90
70762;DHT22;58360;0.000;0.000;2023-05-28T02:21:41;16.40;83.70
70762;DHT22;58360;0.000;0.000;2023-05-28T02:24:07;16.50;83.50
70762;DHT22;58360;0.000;0.000;2023-05-28T02:26:33;16.50;83.70
70762;DHT22;58360;0.000;0.000;2023-05-28T02:28:58;16.30;84.60
70762;DHT22;58360;0.000;0.000;2023-05-28T02:31:24;16.10;85.50
70762;DHT22;58360;0.000;0.000;2023-05-28T02:33:50;16.00;86.20
70762;DHT22;58360;0.000;0.000;2023-05-28T02:36:16;15.90;86.50
70762;DHT22;58360;0.000;0.000;2023-05-28T02:38:42;15.90;86.60
70762;DHT22;58360;0.000;0.000;2023-05-28T02:41:08;15.90;86.50
70762;DHT22;58360;0.000;0.000;2023-05-28T02:43:34;15.80;87.00
70762;DHT22;58360;0.000;0.000;2023-05-28T02:46:02;15.90;86.50
70762;DHT22;58360;0.000;0.000;2023-05-28T02:48:28;15.90;86.20
70762;DHT22;58360;0.000;0.000;2023-05-28T02:50:54;16.00;86.10
70762;DHT22;58360;0.000;0.000;2023-05-28T02:53:20;16.10;85.70
70762;DHT22;58360;0.000;0.000;2023-05-28T02:55:49;16.00;86.10
70762;DHT22;58360;0.000;0.000;2023-05-28T02:58:15;15.80;87.10
70762;DHT22;58360;0.000;0.000;2023-05-28T03:00:45;15.80;87.40
70762;DHT22;58360;0.000;0.000;2023-05-28T03:03:10;15.80;87.10
70762;DHT22;58360;0.000;0.000;2023-05-28T03:05:36;15.70;87.40
70762;DHT22;58360;0.000;0.000;2023-05-28T03:08:02;15.60;87.70
70762;DHT22;58360;0.000;0.000;2023-05-28T03:10:27;15.60;87.60
70762;DHT22;58360;0.000;0.000;2023-05-28T03:12:53;15.60;87.80
70762;DHT22;58360;0.000;0.000;2023-05-28T03:15:18;15.70;87.50
70762;DHT22;58360;0.000;0.000;2023-05-28T03:17:47;15.60;87.90
70762;DHT22;58360;0.000;0.000;2023-05-28T03:20:12;15.50;87.90
70762;DHT22;58360;0.000;0.000;2023-05-28T03:22:38;15.70;87.50
70762;DHT22;58360;0.000;0.000;2023-05-28T03:25:05;15.50;88.00
70762;DHT22;58360;0.000;0.000;2023-05-28T03:27:34;15.30;88.90
70762;DHT22;58360;0.000;0.000;2023-05-28T03:29:59;15.30;89.40
70762;DHT22;58360;0.000;0.000;2023-05-28T03:32:25;15.10;90.20
70762;DHT22;58360;0.000;0.000;2023-05-28T03:34:50;15.00;90.60
70762;DHT22;58360;0.000;0.000;2023-05-28T03:37:16;15.00;90.40
70762;DHT22;58360;0.000;0.000;2023-05-28T03:39:43;15.20;90.10
70762;DHT22;58360;0.000;0.000;2023-05-28T03:42:08;15.30;89.70
70762;DHT22;58360;0.000;0.000;2023-05-28T03:44:34;15.30;89.30
70762;DHT22;58360;0.000;0.000;2023-05-28T03:47:00;15.40;89.40
70762;DHT22;58360;0.000;0.000;2023-05-28T03:49:26;15.20;89.20
70762;DHT22;58360;0.000;0.000;2023-05-28T03:51:52;15.10;89.90
70762;DHT22;58360;0.000;0.000;2023-05-28T03:54:17;15.20;89.40
70762;DHT22;58360;0.000;0.000;2023-05-28T03:56:43;15.30;89.10
70762;DHT22;58360;0.000;0.000;2023-05-28T03:59:09;15.30;88.70
70762;DHT22;58360;0.000;0.000;2023-05-28T04:01:35;15.40;88.60
70762;DHT22;58360;0.000;0.000;2023-05-28T04:04:02;15.40;88.20
70762;DHT22;58360;0.000;0.000;2023-05-28T04:06:28;15.30;88.70
70762;DHT22;58360;0.000;0.000;2023-05-28T04:08:55;15.30;88.70
70762;DHT22;58360;0.000;0.000;2023-05-28T04:11:21;15.10;89.80
70762;DHT22;58360;0.000;0.000;2023-05-28T04:13:50;15.10;89.70
70762;DHT22;58360;0.000;0.000;2023-05-28T04:16:16;15.20;89.30
70762;DHT22;58360;0.000;0.000;2023-05-28T04:18:42;15.10;89.60
70762;DHT22;58360;0.000;0.000;2023-05-28T04:21:07;15.00;90.10
70762;DHT22;58360;0.000;0.000;2023-05-28T04:23:33;15.10;90.00
70762;DHT22;58360;0.000;0.000;2023-05-28T04:25:59;15.00;90.10
70762;DHT22;58360;0.000;0.000;2023-05-28T04:28:25;15.10;89.90
70762;DHT22;58360;0.000;0.000;2023-05-28T04:30:55;15.20;89.10
70762;DHT22;58360;0.000;0.000;2023-05-28T04:33:25;15.40;88.20
70762;DHT22;58360;0.000;0.000;2023-05-28T04:35:57;15.40;88.20
70762;DHT22;58360;0.000;0.000;2023-05-28T04:38:24;15.40;88.00
70762;DHT22;58360;0.000;0.000;2023-05-28T04:40:50;15.30;89.00
70762;DHT22;58360;0.000;0.000;2023-05-28T04:43:16;15.40;88.40
70762;DHT22;58360;0.000;0.000;2023-05-28T04:45:42;15.40;88.20
70762;DHT22;58360;0.000;0.000;2023-05-28T04:48:08;15.50;87.70
70762;DHT22;58360;0.000;0.000;2023-05-28T04:50:34;15.40;88.30
70762;DHT22;58360;0.000;0.000;2023-05-28T04:53:00;15.50;88.40
70762;DHT22;58360;0.000;0.000;2023-05-28T04:55:26;15.40;88.30
70762;DHT22;58360;0.000;0.000;2023-05-28T04:57:52;15.40;88.90
70762;DHT22;58360;0.000;0.000;2023-05-28T05:00:18;15.50;89.10
70762;DHT22;58360;0.000;0.000;2023-05-28T05:02:44;15.50;88.60
70762;DHT22;58360;0.000;0.000;2023-05-28T05:05:10;15.70;88.00
70762;DHT22;58360;0.000;0.000;2023-05-28T05:07:37;15.70;87.40
70762;DHT22;58360;0.000;0.000;2023-05-28T05:10:12;15.80;87.10
70762;DHT22;58360;0.000;0.000;2023-05-28T05:12:38;15.90;86.90
70762;DHT22;58360;0.000;0.000;2023-05-28T05:15:05;15.90;86.00
70762;DHT22;58360;0.000;0.000;2023-05-28T05:17:31;16.00;86.20
70762;DHT22;58360;0.000;0.000;2023-05-28T05:19:58;16.10;85.70
70762;DHT22;58360;0.000;0.000;2023-05-28T05:22:23;16.10;85.70
70762;DHT22;58360;0.000;0.000;2023-05-28T05:24:50;16.30;85.00
70762;DHT22;58360;0.000;0.000;2023-05-28T05:27:16;16.50;84.10
70762;DHT22;58360;0.000;0.000;2023-05-28T05:29:42;16.70;83.10
70762;DHT22;58360;0.000;0.000;2023-05-28T05:32:10;16.70;83.00
70762;DHT22;58360;0.000;0.000;2023-05-28T05:34:36;16.70;83.60
70762;DHT22;58360;0.000;0.000;2023-05-28T05:37:02;16.50;84.40
70762;DHT22;58360;0.000;0.000;2023-05-28T05:39:28;16.60;83.90
70762;DHT22;58360;0.000;0.000;2023-05-28T05:41:54;16.70;83.20
70762;DHT22;58360;0.000;0.000;2023-05-28T05:44:20;16.80;83.50
70762;DHT22;58360;0.000;0.000;2023-05-28T05:46:46;16.80;82.70
70762;DHT22;58360;0.000;0.000;2023-05-28T05:49:13;16.90;83.40
70762;DHT22;58360;0.000;0.000;2023-05-28T05:51:38;16.80;83.10
70762;DHT22;58360;0.000;0.000;2023-05-28T05:54:04;16.90;82.30
70762;DHT22;58360;0.000;0.000;2023-05-28T05:56:30;16.90;82.30
70762;DHT22;58360;0.000;0.000;2023-05-28T05:58:58;16.90;82.40
70762;DHT22;58360;0.000;0.000;2023-05-28T06:01:25;17.00;82.20
70762;DHT22;58360;0.000;0.000;2023-05-28T06:03:51;17.00;81.60
70762;DHT22;58360;0.000;0.000;2023-05-28T06:06:18;17.20;80.90
70762;DHT22;58360;0.000;0.000;2023-05-28T06:08:43;17.30;81.30
70762;DHT22;58360;0.000;0.000;2023-05-28T06:11:09;17.50;80.10
70762;DHT22;58360;0.000;0.000;2023-05-28T06:13:36;17.50;79.40
70762;DHT22;58360;0.000;0.000;2023-05-28T06:16:04;17.50;79.30
70762;DHT22;58360;0.000;0.000;2023-05-28T06:18:32;17.40;80.60
70762;DHT22;58360;0.000;0.000;2023-05-28T06:20:57;17.40;80.50
70762;DHT22;58360;0.000;0.000;2023-05-28T06:23:24;17.50;80.90
70762;DHT22;58360;0.000;0.000;2023-05-28T06:25:50;17.70;79.90
70762;DHT22;58360;0.000;0.000;2023-05-28T06:28:16;17.80;78.50
70762;DHT22;58360;0.000;0.000;2023-05-28T06:30:42;17.80;79.20
70762;DHT22;58360;0.000;0.000;2023-05-28T06:33:08;17.80;78.70
70762;DHT22;58360;0.000;0.000;2023-05-28T06:35:34;17.80;78.80
70762;DHT22;58360;0.000;0.000;2023-05-28T06:38:02;17.70;79.60
70762;DHT22;58360;0.000;0.000;2023-05-28T06:40:28;17.80;79.40
70762;DHT22;58360;0.000;0.000;2023-05-28T06:42:54;18.00;79.40
70762;DHT22;58360;0.000;0.000;2023-05-28T06:45:20;18.50;78.60
70762;DHT22;58360;0.000;0.000;2023-05-28T06:47:46;19.20;76.20
70762;DHT22;58360;0.000;0.000;2023-05-28T06:50:12;20.10;74.70
70762;DHT22;58360;0.000;0.000;2023-05-28T06:52:39;21.00;72.10
70762;DHT22;58360;0.000;0.000;2023-05-28T06:55:06;21.80;68.80
70762;DHT22;58360;0.000;0.000;2023-05-28T06:57:35;22.60;66.10
70762;DHT22;58360;0.000;0.000;2023-05-28T07:00:06;23.20;64.10
70762;DHT22;58360;0.000;0.000;2023-05-28T07:02:43;23.60;63.50
70762;DHT22;58360;0.000;0.000;2023-05-28T07:05:09;24.30;61.40
70762;DHT22;58360;0.000;0.000;2023-05-28T07:07:35;24.90;60.30
70762;DHT22;58360;0.000;0.000;2023-05-28T07:10:02;25.30;58.00
70762;DHT22;58360;0.000;0.000;2023-05-28T07:12:28;25.50;58.30
70762;DHT22;58360;0.000;0.000;2023-05-28T07:14:54;25.80;56.20
70762;DHT22;58360;0.000;0.000;2023-05-28T07:17:20;26.20;55.90
70762;DHT22;58360;0.000;0.000;2023-05-28T07:19:47;27.20;55.80
70762;DHT22;58360;0.000;0.000;2023-05-28T07:22:13;27.20;54.10
70762;DHT22;58360;0.000;0.000;2023-05-28T07:24:39;27.40;52.10
70762;DHT22;58360;0.000;0.000;2023-05-28T07:27:05;28.10;51.60
70762;DHT22;58360;0.000;0.000;2023-05-28T07:29:32;28.70;49.80
70762;DHT22;58360;0.000;0.000;2023-05-28T07:31:58;28.90;48.90
70762;DHT22;58360;0.000;0.000;2023-05-28T07:34:24;29.90;47.70
70762;DHT22;58360;0.000;0.000;2023-05-28T07:36:49;29.00;47.60
70762;DHT22;58360;0.000;0.000;2023-05-28T07:39:16;29.10;47.20
70762;DHT22;58360;0.000;0.000;2023-05-28T07:41:41;28.40;49.20
70762;DHT22;58360;0.000;0.000;2023-05-28T07:44:07;28.90;49.30
70762;DHT22;58360;0.000;0.000;2023-05-28T07:46:34;28.70;47.80
70762;DHT22;58360;0.000;0.000;2023-05-28T07:49:00;29.10;47.60
70762;DHT22;58360;0.000;0.000;2023-05-28T07:51:26;29.00;48.10
70762;DHT22;58360;0.000;0.000;2023-05-28T07:53:52;28.90;48.90
70762;DHT22;58360;0.000;0.000;2023-05-28T07:56:18;29.70;46.00
70762;DHT22;58360;0.000;0.000;2023-05-28T07:58:44;30.70;45.00
70762;DHT22;58360;0.000;0.000;2023-05-28T08:01:10;31.30;44.20
70762;DHT22;58360;0.000;0.000;2023-05-28T08:03:36;31.80;43.10
70762;DHT22;58360;0.000;0.000;2023-05-28T08:06:02;32.10;43.60
70762;DHT22;58360;0.000;0.000;2023-05-28T08:08:28;32.10;41.90
70762;DHT22;58360;0.000;0.000;2023-05-28T08:10:54;32.80;41.10
70762;DHT22;58360;0.000;0.000;2023-05-28T08:13:20;32.20;41.40
70762;DHT22;58360;0.000;0.000;2023-05-28T08:15:47;31.50;44.10
70762;DHT22;58360;0.000;0.000;2023-05-28T08:18:13;32.20;42.30
70762;DHT22;58360;0.000;0.000;2023-05-28T08:20:38;32.40;40.80
70762;DHT22;58360;0.000;0.000;2023-05-28T08:23:05;32.20;41.90
70762;DHT22;58360;0.000;0.000;2023-05-28T08:25:32;32.50;41.40
70762;DHT22;58360;0.000;0.000;2023-05-28T08:27:57;32.90;40.80
70762;DHT22;58360;0.000;0.000;2023-05-28T08:30:23;32.80;41.30
70762;DHT22;58360;0.000;0.000;2023-05-28T08:32:49;32.30;41.80
70762;DHT22;58360;0.000;0.000;2023-05-28T08:35:15;33.70;40.20
70762;DHT22;58360;0.000;0.000;2023-05-28T08:37:40;34.10;40.00
70762;DHT22;58360;0.000;0.000;2023-05-28T08:40:07;33.90;38.70
70762;DHT22;58360;0.000;0.000;2023-05-28T08:42:34;33.30;39.90
70762;DHT22;58360;0.000;0.000;2023-05-28T08:45:01;33.40;40.50
70762;DHT22;58360;0.000;0.000;2023-05-28T08:47:30;34.40;39.70
70762;DHT22;58360;0.000;0.000;2023-05-28T08:50:01;34.10;39.60
70762;DHT22;58360;0.000;0.000;2023-05-28T08:52:33;34.60;37.90
70762;DHT22;58360;0.000;0.000;2023-05-28T08:55:01;35.20;37.80
70762;DHT22;58360;0.000;0.000;2023-05-28T08:57:30;35.70;37.90
70762;DHT22;58360;0.000;0.000;2023-05-28T08:59:57;35.80;35.80
70762;DHT22;58360;0.000;0.000;2023-05-28T09:02:25;34.80;39.20
70762;DHT22;58360;0.000;0.000;2023-05-28T09:04:51;34.90;37.50
70762;DHT22;58360;0.000;0.000;2023-05-28T09:07:17;36.30;37.00
70762;DHT22;58360;0.000;0.000;2023-05-28T09:09:43;37.30;35.50
70762;DHT22;58360;0.000;0.000;2023-05-28T09:12:19;37.50;35.10
70762;DHT22;58360;0.000;0.000;2023-05-28T09:14:45;37.20;34.30
70762;DHT22;58360;0.000;0.000;2023-05-28T09:17:11;37.20;34.40
70762;DHT22;58360;0.000;0.000;2023-05-28T09:19:39;37.10;33.40
70762;DHT22;58360;0.000;0.000;2023-05-28T09:22:05;37.70;33.70
70762;DHT22;58360;0.000;0.000;2023-05-28T09:24:31;36.60;33.90
70762;DHT22;58360;0.000;0.000;2023-05-28T09:26:57;36.60;34.70
70762;DHT22;58360;0.000;0.000;2023-05-28T09:29:24;37.70;33.70
70762;DHT22;58360;0.000;0.000;2023-05-28T09:32:00;37.50;34.50
70762;DHT22;58360;0.000;0.000;2023-05-28T09:34:27;39.30;32.20
70762;DHT22;58360;0.000;0.000;2023-05-28T09:37:03;39.10;33.10
70762;DHT22;58360;0.000;0.000;2023-05-28T09:39:30;39.90;32.40
70762;DHT22;58360;0.000;0.000;2023-05-28T09:42:04;39.70;31.10
70762;DHT22;58360;0.000;0.000;2023-05-28T09:44:38;38.30;32.60
70762;DHT22;58360;0.000;0.000;2023-05-28T09:47:16;38.40;32.40
70762;DHT22;58360;0.000;0.000;2023-05-28T09:49:43;38.30;32.00
70762;DHT22;58360;0.000;0.000;2023-05-28T09:52:17;38.20;33.30
70762;DHT22;58360;0.000;0.000;2023-05-28T09:54:48;37.30;33.00
70762;DHT22;58360;0.000;0.000;2023-05-28T09:57:18;37.60;32.00
70762;DHT22;58360;0.000;0.000;2023-05-28T09:59:46;37.90;32.00
70762;DHT22;58360;0.000;0.000;2023-05-28T10:02:40;37.60;34.80
70762;DHT22;58360;0.000;0.000;2023-05-28T10:05:07;38.90;33.10
70762;DHT22;58360;0.000;0.000;2023-05-28T10:07:36;38.80;32.80
70762;DHT22;58360;0.000;0.000;2023-05-28T10:10:04;40.30;31.50
70762;DHT22;58360;0.000;0.000;2023-05-28T10:12:30;41.90;30.50
70762;DHT22;58360;0.000;0.000;2023-05-28T10:14:57;42.50;30.00
70762;DHT22;58360;0.000;0.000;2023-05-28T10:17:23;41.50;30.20
70762;DHT22;58360;0.000;0.000;2023-05-28T10:19:49;42.40;29.80
70762;DHT22;58360;0.000;0.000;2023-05-28T10:22:16;40.80;30.00
70762;DHT22;58360;0.000;0.000;2023-05-28T10:24:42;40.30;30.90
70762;DHT22;58360;0.000;0.000;2023-05-28T10:27:13;41.00;30.60
70762;DHT22;58360;0.000;0.000;2023-05-28T10:29:41;40.70;29.60
70762;DHT22;58360;0.000;0.000;2023-05-28T10:32:07;40.30;31.50
70762;DHT22;58360;0.000;0.000;2023-05-28T10:34:34;41.30;30.20
70762;DHT22;58360;0.000;0.000;2023-05-28T10:37:05;41.70;30.30
70762;DHT22;58360;0.000;0.000;2023-05-28T10:39:49;42.00;29.60
70762;DHT22;58360;0.000;0.000;2023-05-28T10:42:16;42.00;29.70
70762;DHT22;58360;0.000;0.000;2023-05-28T10:47:43;40.00;30.70
70762;DHT22;58360;0.000;0.000;2023-05-28T10:50:16;39.90;30.80
70762;DHT22;58360;0.000;0.000;2023-05-28T10:52:42;39.60;30.00
70762;DHT22;58360;0.000;0.000;2023-05-28T10:55:11;40.60;30.00
70762;DHT22;58360;0.000;0.000;2023-05-28T10:57:45;41.20;29.70
70762;DHT22;58360;0.000;0.000;2023-05-28T11:00:12;40.40;30.10
70762;DHT22;58360;0.000;0.000;2023-05-28T11:02:42;39.70;30.00
70762;DHT22;58360;0.000;0.000;2023-05-28T11:05:08;38.80;30.60
70762;DHT22;58360;0.000;0.000;2023-05-28T11:07:41;39.10;30.90
70762;DHT22;58360;0.000;0.000;2023-05-28T11:10:09;38.20;31.70
70762;DHT22;58360;0.000;0.000;2023-05-28T11:12:37;38.00;31.50
70762;DHT22;58360;0.000;0.000;2023-05-28T11:15:04;38.00;31.20
70762;DHT22;58360;0.000;0.000;2023-05-28T11:17:42;37.30;32.60
70762;DHT22;58360;0.000;0.000;2023-05-28T11:20:18;38.00;30.80
70762;DHT22;58360;0.000;0.000;2023-05-28T11:22:44;37.00;31.60
70762;DHT22;58360;0.000;0.000;2023-05-28T11:25:11;36.80;33.60
70762;DHT22;58360;0.000;0.000;2023-05-28T11:27:38;37.40;31.40
70762;DHT22;58360;0.000;0.000;2023-05-28T11:30:16;37.50;32.30
70762;DHT22;58360;0.000;0.000;2023-05-28T11:32:43;37.60;31.50
70762;DHT22;58360;0.000;0.000;2023-05-28T11:35:10;37.50;32.50
70762;DHT22;58360;0.000;0.000;2023-05-28T11:37:43;37.70;32.40
70762;DHT22;58360;0.000;0.000;2023-05-28T11:40:11;38.50;31.80
70762;DHT22;58360;0.000;0.000;2023-05-28T11:42:38;39.40;31.40
70762;DHT22;58360;0.000;0.000;2023-05-28T11:45:08;39.00;30.90
70762;DHT22;58360;0.000;0.000;2023-05-28T11:47:35;38.00;31.60
70762;DHT22;58360;0.000;0.000;2023-05-28T11:52:35;38.10;32.20
70762;DHT22;58360;0.000;0.000;2023-05-28T11:55:01;37.80;31.60
70762;DHT22;58360;0.000;0.000;2023-05-28T11:57:29;37.40;31.60
70762;DHT22;58360;0.000;0.000;2023-05-28T12:00:07;36.50;32.40
70762;DHT22;58360;0.000;0.000;2023-05-28T12:02:48;36.50;32.10
70762;DHT22;58360;0.000;0.000;2023-05-28T12:05:15;36.20;31.80
70762;DHT22;58360;0.000;0.000;2023-05-28T12:10:13;37.40;31.60
70762;DHT22;58360;0.000;0.000;2023-05-28T12:12:42;37.20;31.70
70762;DHT22;58360;0.000;0.000;2023-05-28T12:15:08;36.70;32.60
70762;DHT22;58360;0.000;0.000;2023-05-28T12:17:42;37.00;32.90
70762;DHT22;58360;0.000;0.000;2023-05-28T12:20:29;37.20;31.80
70762;DHT22;58360;0.000;0.000;2023-05-28T12:23:06;36.20;33.30
70762;DHT22;58360;0.000;0.000;2023-05-28T12:25:45;36.60;32.30
70762;DHT22;58360;0.000;0.000;2023-05-28T12:28:12;37.10;31.30
70762;DHT22;58360;0.000;0.000;2023-05-28T12:30:40;37.40;31.00
70762;DHT22;58360;0.000;0.000;2023-05-28T12:33:06;38.10;30.90
70762;DHT22;58360;0.000;0.000;2023-05-28T12:35:32;38.70;30.20
70762;DHT22;58360;0.000;0.000;2023-05-28T12:37:58;39.10;29.60
70762;DHT22;58360;0.000;0.000;2023-05-28T12:40:23;38.20;31.40
70762;DHT22;58360;0.000;0.000;2023-05-28T12:42:49;39.40;31.00
70762;DHT22;58360;0.000;0.000;2023-05-28T12:45:15;40.50;30.10
70762;DHT22;58360;0.000;0.000;2023-05-28T12:47:40;40.20;30.00
70762;DHT22;58360;0.000;0.000;2023-05-28T12:50:06;39.90;30.20
70762;DHT22;58360;0.000;0.000;2023-05-28T12:52:32;39.60;29.70
70762;DHT22;58360;0.000;0.000;2023-05-28T12:55:00;38.70;30.40
70762;DHT22;58360;0.000;0.000;2023-05-28T12:57:26;37.10;31.30
70762;DHT22;58360;0.000;0.000;2023-05-28T12:59:52;37.20;30.30
70762;DHT22;58360;0.000;0.000;2023-05-28T13:02:17;36.90;31.10
70762;DHT22;58360;0.000;0.000;2023-05-28T13:04:43;36.40;32.70
70762;DHT22;58360;0.000;0.000;2023-05-28T13:07:09;36.40;32.30
70762;DHT22;58360;0.000;0.000;2023-05-28T13:09:35;36.30;33.00
70762;DHT22;58360;0.000;0.000;2023-05-28T13:12:01;37.00;32.50
70762;DHT22;58360;0.000;0.000;2023-05-28T13:14:28;36.90;31.90
70762;DHT22;58360;0.000;0.000;2023-05-28T13:16:54;36.60;33.60
70762;DHT22;58360;0.000;0.000;2023-05-28T13:19:21;36.90;31.50
70762;DHT22;58360;0.000;0.000;2023-05-28T13:21:46;36.40;31.70
70762;DHT22;58360;0.000;0.000;2023-05-28T13:24:12;36.00;33.10
70762;DHT22;58360;0.000;0.000;2023-05-28T13:26:38;35.50;33.20
70762;DHT22;58360;0.000;0.000;2023-05-28T13:29:04;35.20;32.90
70762;DHT22;58360;0.000;0.000;2023-05-28T13:31:30;34.70;33.10
70762;DHT22;58360;0.000;0.000;2023-05-28T13:33:56;34.30;32.70
70762;DHT22;58360;0.000;0.000;2023-05-28T13:36:23;33.90;33.80
70762;DHT22;58360;0.000;0.000;2023-05-28T13:38:49;34.10;33.20
70762;DHT22;58360;0.000;0.000;2023-05-28T13:41:15;34.30;32.60
70762;DHT22;58360;0.000;0.000;2023-05-28T13:43:41;34.00;33.20
70762;DHT22;58360;0.000;0.000;2023-05-28T13:46:07;33.90;32.30
70762;DHT22;58360;0.000;0.000;2023-05-28T13:48:34;33.70;34.00
70762;DHT22;58360;0.000;0.000;2023-05-28T13:51:00;33.90;33.30
70762;DHT22;58360;0.000;0.000;2023-05-28T13:53:27;34.10;32.80
70762;DHT22;58360;0.000;0.000;2023-05-28T13:55:54;33.60;33.30
70762;DHT22;58360;0.000;0.000;2023-05-28T13:58:20;33.80;34.10
70762;DHT22;58360;0.000;0.000;2023-05-28T14:00:46;34.00;33.10
70762;DHT22;58360;0.000;0.000;2023-05-28T14:03:12;33.70;30.40
70762;DHT22;58360;0.000;0.000;2023-05-28T14:05:39;33.50;32.40
70762;DHT22;58360;0.000;0.000;2023-05-28T14:08:06;33.50;32.90
70762;DHT22;58360;0.000;0.000;2023-05-28T14:10:32;33.50;31.80
70762;DHT22;58360;0.000;0.000;2023-05-28T14:12:58;33.20;32.60
70762;DHT22;58360;0.000;0.000;2023-05-28T14:15:23;33.10;31.70
70762;DHT22;58360;0.000;0.000;2023-05-28T14:17:50;33.40;33.70
70762;DHT22;58360;0.000;0.000;2023-05-28T14:20:16;33.20;32.70
70762;DHT22;58360;0.000;0.000;2023-05-28T14:22:41;32.80;33.60
70762;DHT22;58360;0.000;0.000;2023-05-28T14:25:08;32.60;33.20
70762;DHT22;58360;0.000;0.000;2023-05-28T14:27:34;32.70;33.80
70762;DHT22;58360;0.000;0.000;2023-05-28T14:30:00;32.60;32.80
70762;DHT22;58360;0.000;0.000;2023-05-28T14:32:25;32.70;32.90
70762;DHT22;58360;0.000;0.000;2023-05-28T14:34:51;32.50;34.30
70762;DHT22;58360;0.000;0.000;2023-05-28T14:37:17;32.70;33.40
70762;DHT22;58360;0.000;0.000;2023-05-28T14:39:45;32.20;31.70
70762;DHT22;58360;0.000;0.000;2023-05-28T14:42:11;32.10;33.20
70762;DHT22;58360;0.000;0.000;2023-05-28T14:44:38;32.00;34.60
70762;DHT22;58360;0.000;0.000;2023-05-28T14:47:04;31.80;34.60
70762;DHT22;58360;0.000;0.000;2023-05-28T14:49:29;32.00;34.30
70762;DHT22;58360;0.000;0.000;2023-05-28T14:51:56;32.10;35.20
70762;DHT22;58360;0.000;0.000;2023-05-28T14:54:22;32.00;34.90
70762;DHT22;58360;0.000;0.000;2023-05-28T14:56:48;31.90;34.50
70762;DHT22;58360;0.000;0.000;2023-05-28T14:59:14;32.10;34.40
70762;DHT22;58360;0.000;0.000;2023-05-28T15:01:39;31.80;35.30
70762;DHT22;58360;0.000;0.000;2023-05-28T15:04:05;31.50;33.80
70762;DHT22;58360;0.000;0.000;2023-05-28T15:06:31;31.40;34.90
70762;DHT22;58360;0.000;0.000;2023-05-28T15:08:58;31.20;34.70
70762;DHT22;58360;0.000;0.000;2023-05-28T15:11:24;31.10;33.50
70762;DHT22;58360;0.000;0.000;2023-05-28T15:13:51;30.90;32.80
70762;DHT22;58360;0.000;0.000;2023-05-28T15:16:17;31.00;34.30
70762;DHT22;58360;0.000;0.000;2023-05-28T15:18:43;31.10;34.90
70762;DHT22;58360;0.000;0.000;2023-05-28T15:21:09;31.10;34.10
70762;DHT22;58360;0.000;0.000;2023-05-28T15:23:35;31.00;35.40
70762;DHT22;58360;0.000;0.000;2023-05-28T15:26:01;31.00;33.90
70762;DHT22;58360;0.000;0.000;2023-05-28T15:28:27;30.90;34.30
70762;DHT22;58360;0.000;0.000;2023-05-28T15:30:53;30.60;35.20
70762;DHT22;58360;0.000;0.000;2023-05-28T15:33:20;30.60;36.50
70762;DHT22;58360;0.000;0.000;2023-05-28T15:35:45;30.50;37.00
70762;DHT22;58360;0.000;0.000;2023-05-28T15:38:11;30.50;36.80
70762;DHT22;58360;0.000;0.000;2023-05-28T15:40:37;30.30;36.80
70762;DHT22;58360;0.000;0.000;2023-05-28T15:43:04;30.20;37.70
70762;DHT22;58360;0.000;0.000;2023-05-28T15:45:33;30.20;37.00
70762;DHT22;58360;0.000;0.000;2023-05-28T15:47:59;30.20;36.10
70762;DHT22;58360;0.000;0.000;2023-05-28T15:50:26;30.20;36.20
70762;DHT22;58360;0.000;0.000;2023-05-28T15:52:51;29.80;37.30